sensor_id;sensor_type;location;lat;lon;timestamp;pressure;altitude;pressure_sealevel;temperature;humidity
39949;BME280;29070;48.102;-1.652;2023-03-25T00:03:51;100810.16;;;9.48;77.11
39949;BME280;29070;48.102;-1.652;2023-03-25T00:08:53;100804.94;;;9.48;77.03
39949;BME280;29070;48.102;-1.652;2023-03-25T00:13:53;100815.69;;;9.39;77.02
39949;BME280;29070;48.102;-1.652;2023-03-25T00:18:53;100823.66;;;9.30;77.33
39949;BME280;29070;48.102;-1.652;2023-03-25T00:23:54;100826.03;;;9.25;77.33
39949;BME280;29070;48.102;-1.652;2023-03-25T00:28:55;100830.00;;;9.21;77.22
39949;BME280;29070;48.102;-1.652;2023-03-25T00:33:55;100839.22;;;9.17;77.05
39949;BME280;29070;48.102;-1.652;2023-03-25T00:38:57;100830.28;;;9.11;77.32
39949;BME280;29070;48.102;-1.652;2023-03-25T00:43:58;100843.09;;;9.06;77.67
39949;BME280;29070;48.102;-1.652;2023-03-25T00:48:59;100851.34;;;9.03;77.43
39949;BME280;29070;48.102;-1.652;2023-03-25T00:54:00;100854.31;;;9.00;77.42
39949;BME280;29070;48.102;-1.652;2023-03-25T00:59:01;100855.47;;;8.97;77.16
39949;BME280;29070;48.102;-1.652;2023-03-25T01:04:01;100863.53;;;8.96;77.33
39949;BME280;29070;48.102;-1.652;2023-03-25T01:09:04;100863.88;;;8.93;77.10
39949;BME280;29070;48.102;-1.652;2023-03-25T01:14:12;100873.91;;;8.89;77.11
39949;BME280;29070;48.102;-1.652;2023-03-25T01:19:13;100867.19;;;8.87;77.22
39949;BME280;29070;48.102;-1.652;2023-03-25T01:24:14;100859.72;;;8.84;77.19
39949;BME280;29070;48.102;-1.652;2023-03-25T01:29:17;100858.44;;;8.80;76.89
39949;BME280;29070;48.102;-1.652;2023-03-25T01:34:18;100882.16;;;8.78;77.47
39949;BME280;29070;48.102;-1.652;2023-03-25T01:39:19;100878.13;;;8.75;77.15
39949;BME280;29070;48.102;-1.652;2023-03-25T01:49:29;100878.47;;;8.72;77.40
39949;BME280;29070;48.102;-1.652;2023-03-25T01:54:32;100862.31;;;8.69;77.59
39949;BME280;29070;48.102;-1.652;2023-03-25T01:59:33;100871.00;;;8.69;77.69
39949;BME280;29070;48.102;-1.652;2023-03-25T02:04:44;100873.34;;;8.64;77.37
39949;BME280;29070;48.102;-1.652;2023-03-25T02:09:50;100875.31;;;8.62;77.60
39949;BME280;29070;48.102;-1.652;2023-03-25T02:14:51;100880.09;;;8.58;77.97
39949;BME280;29070;48.102;-1.652;2023-03-25T02:42:33;100892.47;;;8.42;78.13
39949;BME280;29070;48.102;-1.652;2023-03-25T02:47:12;100887.94;;;8.35;78.61
39949;BME280;29070;48.102;-1.652;2023-03-25T02:52:26;100884.66;;;8.33;78.64
39949;BME280;29070;48.102;-1.652;2023-03-25T02:57:30;100883.88;;;8.33;78.86
39949;BME280;29070;48.102;-1.652;2023-03-25T03:02:32;100878.81;;;8.31;78.85
39949;BME280;29070;48.102;-1.652;2023-03-25T03:07:41;100880.78;;;8.29;78.99
39949;BME280;29070;48.102;-1.652;2023-03-25T03:23:34;100888.28;;;8.32;79.37
39949;BME280;29070;48.102;-1.652;2023-03-25T03:28:49;100894.44;;;8.39;79.75
39949;BME280;29070;48.102;-1.652;2023-03-25T03:33:56;100905.41;;;8.43;79.78
39949;BME280;29070;48.102;-1.652;2023-03-25T03:39:08;100914.69;;;8.46;79.88
39949;BME280;29070;48.102;-1.652;2023-03-25T03:44:13;100904.22;;;8.46;80.15
39949;BME280;29070;48.102;-1.652;2023-03-25T03:49:20;100902.91;;;8.50;80.02
39949;BME280;29070;48.102;-1.652;2023-03-25T03:54:25;100901.88;;;8.51;80.13
39949;BME280;29070;48.102;-1.652;2023-03-25T03:59:38;100903.88;;;8.49;80.12
39949;BME280;29070;48.102;-1.652;2023-03-25T04:04:41;100925.16;;;8.46;80.21
39949;BME280;29070;48.102;-1.652;2023-03-25T04:14:56;100932.81;;;8.47;79.97
39949;BME280;29070;48.102;-1.652;2023-03-25T04:20:00;100943.13;;;8.49;80.21
39949;BME280;29070;48.102;-1.652;2023-03-25T04:25:08;100956.19;;;8.49;79.97
39949;BME280;29070;48.102;-1.652;2023-03-25T04:30:09;100959.44;;;8.51;80.21
39949;BME280;29070;48.102;-1.652;2023-03-25T04:35:12;100966.47;;;8.50;80.04
39949;BME280;29070;48.102;-1.652;2023-03-25T04:40:12;100966.66;;;8.49;80.00
39949;BME280;29070;48.102;-1.652;2023-03-25T04:45:15;100978.13;;;8.48;80.20
39949;BME280;29070;48.102;-1.652;2023-03-25T04:50:23;100972.91;;;8.48;79.98
39949;BME280;29070;48.102;-1.652;2023-03-25T04:55:24;100972.22;;;8.46;79.85
39949;BME280;29070;48.102;-1.652;2023-03-25T05:00:25;100976.81;;;8.44;80.04
39949;BME280;29070;48.102;-1.652;2023-03-25T05:05:26;100978.63;;;8.43;79.98
39949;BME280;29070;48.102;-1.652;2023-03-25T05:10:26;100964.06;;;8.40;79.87
39949;BME280;29070;48.102;-1.652;2023-03-25T05:15:30;100976.88;;;8.35;79.70
39949;BME280;29070;48.102;-1.652;2023-03-25T05:20:36;100980.47;;;8.34;80.14
39949;BME280;29070;48.102;-1.652;2023-03-25T05:25:38;100992.09;;;8.32;80.19
39949;BME280;29070;48.102;-1.652;2023-03-25T05:30:41;100985.22;;;8.31;80.19
39949;BME280;29070;48.102;-1.652;2023-03-25T05:35:43;100998.81;;;8.26;79.92
39949;BME280;29070;48.102;-1.652;2023-03-25T05:40:47;101000.59;;;8.26;80.10
39949;BME280;29070;48.102;-1.652;2023-03-25T05:45:48;101008.47;;;8.26;80.27
39949;BME280;29070;48.102;-1.652;2023-03-25T05:50:49;101018.13;;;8.25;80.08
39949;BME280;29070;48.102;-1.652;2023-03-25T05:55:49;101034.78;;;8.24;80.17
39949;BME280;29070;48.102;-1.652;2023-03-25T06:06:47;101055.34;;;8.27;80.38
39949;BME280;29070;48.102;-1.652;2023-03-25T06:11:48;101052.56;;;8.29;80.37
39949;BME280;29070;48.102;-1.652;2023-03-25T06:16:52;101066.13;;;8.32;80.40
39949;BME280;29070;48.102;-1.652;2023-03-25T06:21:52;101077.88;;;8.36;80.58
39949;BME280;29070;48.102;-1.652;2023-03-25T06:26:53;101073.44;;;8.37;80.62
39949;BME280;29070;48.102;-1.652;2023-03-25T06:31:54;101075.41;;;8.43;80.92
39949;BME280;29070;48.102;-1.652;2023-03-25T06:36:54;101081.94;;;8.47;80.79
39949;BME280;29070;48.102;-1.652;2023-03-25T06:41:55;101073.75;;;8.50;80.88
39949;BME280;29070;48.102;-1.652;2023-03-25T06:46:55;101075.66;;;8.56;80.53
39949;BME280;29070;48.102;-1.652;2023-03-25T06:51:55;101083.00;;;8.61;80.59
39949;BME280;29070;48.102;-1.652;2023-03-25T06:56:56;101077.44;;;8.64;80.57
39949;BME280;29070;48.102;-1.652;2023-03-25T07:01:56;101078.72;;;8.68;80.74
39949;BME280;29070;48.102;-1.652;2023-03-25T07:06:57;101087.16;;;8.78;80.40
39949;BME280;29070;48.102;-1.652;2023-03-25T07:11:58;101093.16;;;8.87;80.91
39949;BME280;29070;48.102;-1.652;2023-03-25T07:16:58;101097.34;;;8.96;80.69
39949;BME280;29070;48.102;-1.652;2023-03-25T07:21:58;101103.66;;;9.02;80.45
39949;BME280;29070;48.102;-1.652;2023-03-25T07:26:59;101115.06;;;9.09;80.14
39949;BME280;29070;48.102;-1.652;2023-03-25T07:32:00;101124.50;;;9.19;80.21
39949;BME280;29070;48.102;-1.652;2023-03-25T07:37:00;101135.88;;;9.26;80.41
39949;BME280;29070;48.102;-1.652;2023-03-25T07:42:01;101142.69;;;9.35;80.07
39949;BME280;29070;48.102;-1.652;2023-03-25T07:47:01;101147.88;;;9.43;79.88
39949;BME280;29070;48.102;-1.652;2023-03-25T07:52:02;101157.28;;;9.52;79.86
39949;BME280;29070;48.102;-1.652;2023-03-25T07:57:02;101162.47;;;9.61;79.73
39949;BME280;29070;48.102;-1.652;2023-03-25T08:02:03;101168.00;;;9.66;79.19
39949;BME280;29070;48.102;-1.652;2023-03-25T08:07:03;101177.41;;;9.75;79.26
39949;BME280;29070;48.102;-1.652;2023-03-25T08:12:03;101172.72;;;9.85;79.16
39949;BME280;29070;48.102;-1.652;2023-03-25T08:17:05;101178.06;;;9.92;78.96
39949;BME280;29070;48.102;-1.652;2023-03-25T08:22:05;101189.34;;;9.92;78.67
39949;BME280;29070;48.102;-1.652;2023-03-25T08:27:06;101193.56;;;10.02;78.74
39949;BME280;29070;48.102;-1.652;2023-03-25T08:32:06;101194.47;;;10.09;78.77
39949;BME280;29070;48.102;-1.652;2023-03-25T08:37:06;101200.22;;;10.19;78.97
39949;BME280;29070;48.102;-1.652;2023-03-25T08:42:07;101208.38;;;10.24;78.78
39949;BME280;29070;48.102;-1.652;2023-03-25T08:47:08;101223.06;;;10.34;78.65
39949;BME280;29070;48.102;-1.652;2023-03-25T08:52:08;101218.72;;;10.41;78.52
39949;BME280;29070;48.102;-1.652;2023-03-25T08:57:09;101216.03;;;10.49;78.61
39949;BME280;29070;48.102;-1.652;2023-03-25T09:02:10;101222.78;;;10.58;78.41
39949;BME280;29070;48.102;-1.652;2023-03-25T09:07:11;101225.78;;;10.70;78.34
39949;BME280;29070;48.102;-1.652;2023-03-25T09:12:11;101231.75;;;10.79;78.12
39949;BME280;29070;48.102;-1.652;2023-03-25T09:17:12;101239.31;;;10.88;78.04
39949;BME280;29070;48.102;-1.652;2023-03-25T09:22:12;101240.13;;;11.04;77.92
39949;BME280;29070;48.102;-1.652;2023-03-25T09:27:13;101231.38;;;11.18;77.92
39949;BME280;29070;48.102;-1.652;2023-03-25T09:32:13;101230.53;;;11.33;77.82
39949;BME280;29070;48.102;-1.652;2023-03-25T09:37:14;101246.59;;;11.44;77.66
39949;BME280;29070;48.102;-1.652;2023-03-25T09:47:59;101247.22;;;11.68;77.16
39949;BME280;29070;48.102;-1.652;2023-03-25T10:03:33;101259.25;;;11.99;76.34
39949;BME280;29070;48.102;-1.652;2023-03-25T10:13:41;101266.22;;;12.13;75.58
39949;BME280;29070;48.102;-1.652;2023-03-25T10:19:03;101260.63;;;12.23;74.82
39949;BME280;29070;48.102;-1.652;2023-03-25T10:24:23;101261.09;;;12.33;74.83
39949;BME280;29070;48.102;-1.652;2023-03-25T10:29:35;101268.88;;;12.48;75.13
39949;BME280;29070;48.102;-1.652;2023-03-25T10:34:43;101255.13;;;12.53;74.72
39949;BME280;29070;48.102;-1.652;2023-03-25T10:39:46;101256.59;;;12.62;74.35
39949;BME280;29070;48.102;-1.652;2023-03-25T10:44:49;101254.22;;;12.74;74.15
39949;BME280;29070;48.102;-1.652;2023-03-25T10:49:50;101258.94;;;12.85;73.87
39949;BME280;29070;48.102;-1.652;2023-03-25T10:54:53;101254.50;;;12.92;73.38
39949;BME280;29070;48.102;-1.652;2023-03-25T11:00:18;101257.16;;;12.99;72.28
39949;BME280;29070;48.102;-1.652;2023-03-25T11:05:21;101257.38;;;13.11;72.84
39949;BME280;29070;48.102;-1.652;2023-03-25T11:10:25;101257.00;;;13.14;72.20
39949;BME280;29070;48.102;-1.652;2023-03-25T11:15:33;101263.13;;;13.28;72.35
39949;BME280;29070;48.102;-1.652;2023-03-25T11:20:39;101261.09;;;13.30;71.41
39949;BME280;29070;48.102;-1.652;2023-03-25T11:25:45;101264.38;;;13.32;71.60
39949;BME280;29070;48.102;-1.652;2023-03-25T11:31:24;101258.91;;;13.33;69.51
39949;BME280;29070;48.102;-1.652;2023-03-25T11:36:29;101266.03;;;13.40;70.69
39949;BME280;29070;48.102;-1.652;2023-03-25T11:41:32;101255.50;;;13.40;70.40
39949;BME280;29070;48.102;-1.652;2023-03-25T11:46:33;101230.75;;;13.54;70.39
39949;BME280;29070;48.102;-1.652;2023-03-25T11:51:40;101230.94;;;13.66;70.08
39949;BME280;29070;48.102;-1.652;2023-03-25T11:56:41;101235.63;;;13.84;69.76
39949;BME280;29070;48.102;-1.652;2023-03-25T12:01:48;101224.66;;;13.87;68.85
39949;BME280;29070;48.102;-1.652;2023-03-25T12:12:16;101225.88;;;14.04;68.60
39949;BME280;29070;48.102;-1.652;2023-03-25T12:17:24;101241.50;;;13.86;67.88
39949;BME280;29070;48.102;-1.652;2023-03-25T12:43:19;101196.84;;;13.64;67.21
39949;BME280;29070;48.102;-1.652;2023-03-25T13:15:37;101166.09;;;14.30;66.37
39949;BME280;29070;48.102;-1.652;2023-03-25T13:20:13;101145.75;;;14.37;66.97
39949;BME280;29070;48.102;-1.652;2023-03-25T13:25:23;101146.91;;;14.55;67.34
39949;BME280;29070;48.102;-1.652;2023-03-25T13:30:39;101128.13;;;14.76;67.21
39949;BME280;29070;48.102;-1.652;2023-03-25T13:46:19;101097.50;;;15.44;65.59
39949;BME280;29070;48.102;-1.652;2023-03-25T13:51:22;101081.94;;;15.54;65.16
39949;BME280;29070;48.102;-1.652;2023-03-25T14:13:13;101082.81;;;15.92;62.23
39949;BME280;29070;48.102;-1.652;2023-03-25T14:18:17;101094.63;;;16.08;62.05
39949;BME280;29070;48.102;-1.652;2023-03-25T14:23:20;101102.41;;;15.84;61.04
39949;BME280;29070;48.102;-1.652;2023-03-25T14:38:59;101096.94;;;15.60;60.34
39949;BME280;29070;48.102;-1.652;2023-03-25T14:44:16;101087.53;;;15.64;58.72
39949;BME280;29070;48.102;-1.652;2023-03-25T14:49:21;101090.25;;;15.58;59.35
39949;BME280;29070;48.102;-1.652;2023-03-25T14:54:28;101083.94;;;15.59;59.49
39949;BME280;29070;48.102;-1.652;2023-03-25T14:59:35;101078.19;;;15.43;58.93
39949;BME280;29070;48.102;-1.652;2023-03-25T15:04:37;101054.59;;;15.42;58.96
39949;BME280;29070;48.102;-1.652;2023-03-25T15:10:04;101044.28;;;15.34;55.45
39949;BME280;29070;48.102;-1.652;2023-03-25T15:15:24;101045.63;;;15.43;58.08
39949;BME280;29070;48.102;-1.652;2023-03-25T15:20:27;101042.69;;;15.33;58.11
39949;BME280;29070;48.102;-1.652;2023-03-25T15:25:28;101038.25;;;15.27;57.95
39949;BME280;29070;48.102;-1.652;2023-03-25T15:47:00;100960.25;;;15.17;55.06
39949;BME280;29070;48.102;-1.652;2023-03-25T15:52:30;100947.16;;;15.41;56.16
39949;BME280;29070;48.102;-1.652;2023-03-25T15:57:46;100935.94;;;15.46;56.30
39949;BME280;29070;48.102;-1.652;2023-03-25T16:08:16;100940.41;;;15.08;57.13
39949;BME280;29070;48.102;-1.652;2023-03-25T16:13:21;100929.31;;;14.99;57.18
39949;BME280;29070;48.102;-1.652;2023-03-25T16:18:25;100929.94;;;14.95;57.52
39949;BME280;29070;48.102;-1.652;2023-03-25T16:23:26;100921.88;;;14.90;57.33
39949;BME280;29070;48.102;-1.652;2023-03-25T16:28:37;100904.09;;;14.78;56.99
39949;BME280;29070;48.102;-1.652;2023-03-25T16:33:38;100895.63;;;14.70;57.18
39949;BME280;29070;48.102;-1.652;2023-03-25T16:38:39;100890.78;;;14.66;57.27
39949;BME280;29070;48.102;-1.652;2023-03-25T16:43:40;100865.66;;;14.57;56.89
39949;BME280;29070;48.102;-1.652;2023-03-25T16:48:50;100874.66;;;14.49;56.75
39949;BME280;29070;48.102;-1.652;2023-03-25T16:53:52;100879.56;;;14.46;57.22
39949;BME280;29070;48.102;-1.652;2023-03-25T17:04:23;100873.72;;;14.19;57.05
39949;BME280;29070;48.102;-1.652;2023-03-25T17:09:28;100894.47;;;14.08;57.57
39949;BME280;29070;48.102;-1.652;2023-03-25T17:14:36;100877.63;;;14.09;57.90
39949;BME280;29070;48.102;-1.652;2023-03-25T17:19:46;100869.41;;;13.92;57.86
39949;BME280;29070;48.102;-1.652;2023-03-25T17:24:52;100865.22;;;13.85;58.38
39949;BME280;29070;48.102;-1.652;2023-03-25T17:29:58;100852.59;;;13.87;58.32
39949;BME280;29070;48.102;-1.652;2023-03-25T17:35:04;100837.47;;;13.76;58.47
39949;BME280;29070;48.102;-1.652;2023-03-25T17:40:07;100844.00;;;13.66;58.71
39949;BME280;29070;48.102;-1.652;2023-03-25T17:45:14;100823.78;;;13.53;59.34
39949;BME280;29070;48.102;-1.652;2023-03-25T17:50:25;100815.75;;;13.42;59.42
39949;BME280;29070;48.102;-1.652;2023-03-25T17:55:26;100804.00;;;13.38;59.73
39949;BME280;29070;48.102;-1.652;2023-03-25T18:00:27;100785.97;;;13.34;59.99
39949;BME280;29070;48.102;-1.652;2023-03-25T18:05:27;100787.03;;;13.20;60.00
39949;BME280;29070;48.102;-1.652;2023-03-25T18:10:28;100772.47;;;13.11;60.23
39949;BME280;29070;48.102;-1.652;2023-03-25T18:15:30;100778.41;;;13.00;60.55
39949;BME280;29070;48.102;-1.652;2023-03-25T18:20:33;100755.53;;;12.93;60.98
39949;BME280;29070;48.102;-1.652;2023-03-25T18:25:33;100780.06;;;12.87;61.22
39949;BME280;29070;48.102;-1.652;2023-03-25T18:30:41;100751.56;;;12.71;61.95
39949;BME280;29070;48.102;-1.652;2023-03-25T18:35:43;100743.34;;;12.47;62.18
39949;BME280;29070;48.102;-1.652;2023-03-25T18:40:45;100733.03;;;12.39;62.51
39949;BME280;29070;48.102;-1.652;2023-03-25T18:45:47;100723.75;;;12.30;62.66
39949;BME280;29070;48.102;-1.652;2023-03-25T18:50:58;100715.44;;;12.19;63.78
39949;BME280;29070;48.102;-1.652;2023-03-25T18:55:59;100720.94;;;12.18;63.43
39949;BME280;29070;48.102;-1.652;2023-03-25T19:01:01;100714.69;;;12.06;63.91
39949;BME280;29070;48.102;-1.652;2023-03-25T19:06:05;100716.31;;;11.93;64.30
39949;BME280;29070;48.102;-1.652;2023-03-25T19:11:06;100697.88;;;11.80;64.46
39949;BME280;29070;48.102;-1.652;2023-03-25T19:16:06;100709.59;;;11.71;64.65
39949;BME280;29070;48.102;-1.652;2023-03-25T19:21:08;100701.94;;;11.56;64.83
39949;BME280;29070;48.102;-1.652;2023-03-25T19:26:08;100687.97;;;11.49;65.38
39949;BME280;29070;48.102;-1.652;2023-03-25T19:31:11;100688.56;;;11.44;65.58
39949;BME280;29070;48.102;-1.652;2023-03-25T19:36:15;100696.25;;;11.32;65.91
39949;BME280;29070;48.102;-1.652;2023-03-25T19:41:17;100686.91;;;11.23;66.45
39949;BME280;29070;48.102;-1.652;2023-03-25T19:46:18;100686.09;;;11.16;66.71
39949;BME280;29070;48.102;-1.652;2023-03-25T19:51:18;100657.81;;;11.11;66.97
39949;BME280;29070;48.102;-1.652;2023-03-25T19:56:18;100658.78;;;11.03;67.29
39949;BME280;29070;48.102;-1.652;2023-03-25T20:01:19;100647.88;;;10.93;67.42
39949;BME280;29070;48.102;-1.652;2023-03-25T20:06:21;100629.91;;;10.90;67.98
39949;BME280;29070;48.102;-1.652;2023-03-25T20:11:21;100618.38;;;10.84;68.09
39949;BME280;29070;48.102;-1.652;2023-03-25T20:16:22;100616.56;;;10.85;68.39
39949;BME280;29070;48.102;-1.652;2023-03-25T20:21:22;100613.53;;;10.88;68.78
39949;BME280;29070;48.102;-1.652;2023-03-25T20:26:23;100584.25;;;10.84;69.00
39949;BME280;29070;48.102;-1.652;2023-03-25T20:31:24;100570.50;;;10.76;69.40
39949;BME280;29070;48.102;-1.652;2023-03-25T20:36:24;100568.47;;;10.64;69.73
39949;BME280;29070;48.102;-1.652;2023-03-25T20:41:25;100541.97;;;10.53;69.83
39949;BME280;29070;48.102;-1.652;2023-03-25T20:46:25;100520.38;;;10.51;69.76
39949;BME280;29070;48.102;-1.652;2023-03-25T20:51:30;100499.38;;;10.44;70.37
39949;BME280;29070;48.102;-1.652;2023-03-25T20:56:30;100498.34;;;10.38;70.46
39949;BME280;29070;48.102;-1.652;2023-03-25T21:01:31;100473.47;;;10.27;70.33
39949;BME280;29070;48.102;-1.652;2023-03-25T21:06:34;100455.94;;;10.21;70.50
39949;BME280;29070;48.102;-1.652;2023-03-25T21:11:35;100433.91;;;10.16;70.85
39949;BME280;29070;48.102;-1.652;2023-03-25T21:16:36;100421.00;;;10.14;70.92
39949;BME280;29070;48.102;-1.652;2023-03-25T21:21:38;100410.31;;;10.09;71.10
39949;BME280;29070;48.102;-1.652;2023-03-25T21:26:39;100395.97;;;10.11;71.21
39949;BME280;29070;48.102;-1.652;2023-03-25T21:31:39;100387.91;;;10.00;71.63
39949;BME280;29070;48.102;-1.652;2023-03-25T21:36:40;100381.44;;;9.96;71.99
39949;BME280;29070;48.102;-1.652;2023-03-25T21:41:41;100352.38;;;9.90;71.95
39949;BME280;29070;48.102;-1.652;2023-03-25T21:46:41;100326.16;;;9.84;72.39
39949;BME280;29070;48.102;-1.652;2023-03-25T21:51:42;100301.16;;;9.88;72.39
39949;BME280;29070;48.102;-1.652;2023-03-25T21:56:43;100291.66;;;9.87;72.45
39949;BME280;29070;48.102;-1.652;2023-03-25T22:01:43;100266.88;;;9.83;72.55
39949;BME280;29070;48.102;-1.652;2023-03-25T22:06:44;100272.09;;;9.76;72.83
39949;BME280;29070;48.102;-1.652;2023-03-25T22:11:44;100252.75;;;9.70;73.25
39949;BME280;29070;48.102;-1.652;2023-03-25T22:16:45;100251.94;;;9.63;73.34
39949;BME280;29070;48.102;-1.652;2023-03-25T22:21:45;100219.69;;;9.63;73.27
39949;BME280;29070;48.102;-1.652;2023-03-25T22:26:45;100181.00;;;9.51;73.84
39949;BME280;29070;48.102;-1.652;2023-03-25T22:31:46;100173.75;;;9.47;74.01
39949;BME280;29070;48.102;-1.652;2023-03-25T22:36:49;100127.38;;;9.47;74.10
39949;BME280;29070;48.102;-1.652;2023-03-25T22:41:52;100120.75;;;9.45;74.52
39949;BME280;29070;48.102;-1.652;2023-03-25T22:46:52;100124.97;;;9.39;74.68
39949;BME280;29070;48.102;-1.652;2023-03-25T22:51:52;100108.25;;;9.40;74.60
39949;BME280;29070;48.102;-1.652;2023-03-25T22:56:54;100060.91;;;9.42;74.99
39949;BME280;29070;48.102;-1.652;2023-03-25T23:01:55;100060.31;;;9.46;75.37
39949;BME280;29070;48.102;-1.652;2023-03-25T23:06:55;100030.84;;;9.44;75.56
39949;BME280;29070;48.102;-1.652;2023-03-25T23:11:56;100007.69;;;9.54;75.67
39949;BME280;29070;48.102;-1.652;2023-03-25T23:16:56;99989.53;;;9.60;75.97
39949;BME280;29070;48.102;-1.652;2023-03-25T23:21:56;99972.16;;;9.65;76.74
39949;BME280;29070;48.102;-1.652;2023-03-25T23:26:58;99945.34;;;9.77;77.06
39949;BME280;29070;48.102;-1.652;2023-03-25T23:31:59;99952.34;;;9.89;76.80
39949;BME280;29070;48.102;-1.652;2023-03-25T23:37:00;99940.59;;;9.99;77.22
39949;BME280;29070;48.102;-1.652;2023-03-25T23:42:01;99933.66;;;10.11;77.79
39949;BME280;29070;48.102;-1.652;2023-03-25T23:47:01;99934.00;;;10.21;77.83
39949;BME280;29070;48.102;-1.652;2023-03-25T23:52:06;99951.91;;;10.24;78.37
39949;BME280;29070;48.102;-1.652;2023-03-25T23:57:10;99999.13;;;10.24;78.06
